PWSweather.com
Personal Weather Stations
Station Observations

AwhituWaiuku, CA 268400

Lat: -37.058, Lon: -174.6346

Elevation: 250

Station Type: Personal

http://www.weather-display.com/windy/gb/grahamsbeach.htm

Latest ConditionsUpdated 4:00:03 PM GMT-12:48 Sunday, Jan 22, 2017
Currently Today's Max Today's Min Today's Average
Temperature 66.1°F18.9°C 66.8°F19.3°C 57.6°F14.2°C 62.5°F16.9°C
Dew Point 54.4°F12.4°C 56.3°F13.5°C 51.1°F10.6°C 53.6°F12.0°C
Winds 20.7 mph SW33.3 kmh SW 33.4 mph WSW53.8 kmh WSW - 25.7 mph 41.4 kmh
Wind Gusts 28.8 mph46.3 kmh 42.6 mph68.6 kmh - -
Humidity 66% 87% 62% 73%
Pressure 29.80 in1009.1 mb 29.80 in1009.1 mb 29.60 in1002.4 mb -
Precipitation - 0.05 in1.3 mm - -
Hour Temp Dew Point Humidity Winds Wind Gusts Pressure Precip Precip Rate Daily Precip Total
04:00 PM 66.1°F18.9°C 54.4°F12.4°C 66% 20.7 mph SW33.3 kmh SW 28.8 mph46.3 kmh 29.80 in1009.1 mb - 0.00 in0.0 mm 0.05 in1.3 mm
03:30 PM 65.6°F18.7°C 54.8°F12.7°C 68% 24.2 mph SW38.9 kmh SW 26.5 mph42.6 kmh 29.80 in1009.1 mb - 0.00 in0.0 mm 0.05 in1.3 mm
03:00 PM 66.8°F19.3°C 56.3°F13.5°C 69% 19.6 mph SW31.5 kmh SW 25.3 mph40.7 kmh 29.80 in1009.1 mb - 0.00 in0.0 mm 0.05 in1.3 mm
02:30 PM 66.3°F19.1°C 54.6°F12.6°C 66% 25.3 mph SW40.7 kmh SW 33.4 mph53.8 kmh 29.79 in1008.8 mb - 0.00 in0.0 mm 0.05 in1.3 mm
02:00 PM 66.8°F19.3°C 54.7°F12.6°C 65% 23.0 mph SW37.0 kmh SW 29.9 mph48.1 kmh 29.79 in1008.8 mb - 0.00 in0.0 mm 0.05 in1.3 mm
01:00 PM 66.7°F19.3°C 55.0°F12.8°C 66% 24.2 mph WSW38.9 kmh WSW 34.5 mph55.5 kmh 29.78 in1008.5 mb - 0.00 in0.0 mm 0.05 in1.3 mm
12:30 PM 66.5°F19.2°C 53.5°F11.9°C 63% 27.6 mph WSW44.4 kmh WSW 32.2 mph51.8 kmh 29.77 in1008.1 mb - 0.00 in0.0 mm 0.05 in1.3 mm
12:00 PM 66.8°F19.3°C 54.2°F12.3°C 64% 25.3 mph WSW40.7 kmh WSW 34.5 mph55.5 kmh 29.76 in1007.8 mb - 0.00 in0.0 mm 0.05 in1.3 mm
11:30 AM 65.4°F18.6°C 55.3°F12.9°C 70% 23.0 mph SW37.0 kmh SW 26.5 mph42.6 kmh 29.76 in1007.8 mb - 0.00 in0.0 mm 0.05 in1.3 mm
11:00 AM 66.3°F19.1°C 55.0°F12.8°C 67% 21.9 mph WSW35.2 kmh WSW 29.9 mph48.1 kmh 29.75 in1007.5 mb - 0.00 in0.0 mm 0.05 in1.3 mm
10:30 AM 65.4°F18.6°C 52.9°F11.6°C 64% 24.2 mph WSW38.9 kmh WSW 35.7 mph57.5 kmh 29.74 in1007.1 mb - 0.00 in0.0 mm 0.05 in1.3 mm
10:00 AM 64.7°F18.2°C 52.2°F11.2°C 64% 24.2 mph WSW38.9 kmh WSW 36.8 mph59.2 kmh 29.73 in1006.8 mb - 0.00 in0.0 mm 0.05 in1.3 mm
09:30 AM 64.5°F18.1°C 51.2°F10.7°C 62% 23.0 mph WSW37.0 kmh WSW 25.3 mph40.7 kmh 29.72 in1006.4 mb - 0.00 in0.0 mm 0.05 in1.3 mm
09:00 AM 63.4°F17.4°C 53.0°F11.7°C 69% 27.6 mph WSW44.4 kmh WSW 40.3 mph64.9 kmh 29.71 in1006.1 mb - 0.00 in0.0 mm 0.05 in1.3 mm
08:30 AM 61.7°F16.5°C 53.7°F12.1°C 75% 19.6 mph SW31.5 kmh SW 20.7 mph33.3 kmh 29.71 in1006.1 mb - 0.00 in0.0 mm 0.05 in1.3 mm
08:00 AM 63.1°F17.3°C 53.5°F11.9°C 71% 26.5 mph SW42.6 kmh SW 32.2 mph51.8 kmh 29.70 in1005.8 mb - 0.00 in0.0 mm 0.05 in1.3 mm
07:30 AM 61.7°F16.5°C 54.4°F12.4°C 77% 27.6 mph WSW44.4 kmh WSW 32.2 mph51.8 kmh 29.68 in1005.1 mb - 0.00 in0.0 mm 0.05 in1.3 mm
07:00 AM 60.7°F15.9°C 54.2°F12.3°C 79% 21.9 mph WSW35.2 kmh WSW 27.6 mph44.4 kmh 29.67 in1004.7 mb - 0.00 in0.0 mm 0.05 in1.3 mm
06:30 AM 60.1°F15.6°C 54.2°F12.3°C 81% 32.2 mph WSW51.8 kmh WSW 36.8 mph59.2 kmh 29.66 in1004.4 mb - 0.00 in0.0 mm 0.05 in1.3 mm
06:00 AM 59.8°F15.4°C 51.1°F10.6°C 73% 28.8 mph WSW46.3 kmh WSW 34.5 mph55.5 kmh 29.64 in1003.7 mb - 0.00 in0.0 mm 0.05 in1.3 mm
05:30 AM 60.4°F15.8°C 52.8°F11.6°C 76% 28.8 mph SW46.3 kmh SW 31.1 mph50.1 kmh 29.63 in1003.4 mb - 0.00 in0.0 mm 0.05 in1.3 mm
05:00 AM 59.7°F15.4°C 52.5°F11.4°C 77% 27.6 mph WSW44.4 kmh WSW 31.1 mph50.1 kmh 29.62 in1003.0 mb - 0.00 in0.0 mm 0.05 in1.3 mm
04:30 AM 60.2°F15.7°C 51.9°F11.1°C 74% 24.2 mph WSW38.9 kmh WSW 31.1 mph50.1 kmh 29.61 in1002.7 mb - 0.00 in0.0 mm 0.05 in1.3 mm
04:00 AM 60.1°F15.6°C 52.1°F11.2°C 75% 24.2 mph WSW38.9 kmh WSW 29.9 mph48.1 kmh 29.61 in1002.7 mb - 0.01 in0.3 mm 0.05 in1.3 mm
03:30 AM 59.9°F15.5°C 54.4°F12.4°C 82% 29.9 mph W48.1 kmh W 38.0 mph61.2 kmh 29.61 in1002.7 mb - 0.00 in0.0 mm 0.04 in1.0 mm
03:00 AM 58.6°F14.8°C 53.1°F11.7°C 82% 29.9 mph WSW48.1 kmh WSW 34.5 mph55.5 kmh 29.61 in1002.7 mb - 0.00 in0.0 mm 0.04 in1.0 mm
02:30 AM 59.4°F15.2°C 53.2°F11.8°C 80% 33.4 mph WSW53.8 kmh WSW 42.6 mph68.6 kmh 29.61 in1002.7 mb - 0.00 in0.0 mm 0.04 in1.0 mm
02:00 AM 57.9°F14.4°C 54.0°F12.2°C 87% 26.5 mph WSW42.6 kmh WSW 32.2 mph51.8 kmh 29.60 in1002.4 mb - 0.00 in0.0 mm 0.04 in1.0 mm
01:30 AM 58.6°F14.8°C 54.8°F12.7°C 87% 26.5 mph WSW42.6 kmh WSW 34.5 mph55.5 kmh 29.61 in1002.7 mb - 0.02 in0.5 mm 0.04 in1.0 mm
01:00 AM 57.6°F14.2°C 53.2°F11.8°C 85% 24.2 mph WSW38.9 kmh WSW 31.1 mph50.1 kmh 29.61 in1002.7 mb - 0.01 in0.3 mm 0.02 in0.5 mm
12:30 AM 59.0°F15.0°C 53.2°F11.8°C 81% 32.2 mph WSW51.8 kmh WSW 38.0 mph61.2 kmh 29.60 in1002.4 mb - 0.01 in0.3 mm 0.01 in0.3 mm
12:00 AM 61.1°F16.2°C 53.1°F11.7°C 75% 24.2 mph WSW38.9 kmh WSW 27.6 mph44.4 kmh 29.60 in1002.4 mb - 0.00 in0.0 mm 0.00 in0.0 mm